Terminal Aerodrome Forecast
Issued by NWS Twin Cities, MN

Home | Current Version | Previous Version | Text Only | Print | Product List | Glossary Off
Versions: 1 2 3 4 5 6 7 8 9 10 11 12 13 14 15 16 17 18 19 20 21 22 23 24

974
FTUS43 KMPX 290842 AAB
TAFMSP
TAF AMD
KMSP 290842Z 2909/3012 VRB03KT P6SM BKN250
     FM291500 11007KT P6SM SCT120 BKN200
     FM300000 10006KT P6SM SCT020 OVC040 PROB30 3000/3004 6SM -RA BR
      BKN030
     FM300400 09005KT P6SM SCT012 BKN020 PROB30 3004/3008 6SM -RA BR
      BKN012=

USA.gov is the U.S. government's official web portal to all federal, state and local government web resources and services.